Welcome to Northern Hawkes Bay. New Zealand.
PWS Header
      nz Flag



Hit Counter


W3C Valid W3C Valid logo


    Wairoa

Select any of the Stations below to visit their websites.










Historic Data from Weather Underground
Select the location of interest below. Wairoa is the default. Please have patience, this Data is slow to load in.
Northern Hawkes Bay Historical Data
Daily Summary for April 25, 2017 Units:  Metric    English   Both
« Previous Day
Next Day »
Daily Weekly Monthly Yearly Custom
  High: Low: Average:
Temperature: 18.0 °C 9.6 °C 13.1 °C
Dew Point: 16.0 °C 9.4 °C 12.5 °C
Humidity: 99% 83% 96%
Wind Speed: 13.4km/h 0.0km/h 1.4km/h
Wind Gust: 21.9km/h - -
Wind- - WSW
Pressure: 1020.2 hPa 1017.8 hPa -
Precipitation: 2.3 mm    
Historical Graphs
 
 
Tabular Data for April 25, 2017
Time Temperature Dew Point Pressure Wind Wind Speed Wind Gust Humidity Rainfall Rate (Hourly) solar
00:01 12.7 °C 12.2 °C 1017.8 hPa Calm     97% 0.5 mm 0 W/m2
00:06 13.2 °C 13.1 °C 1018.2 hPa SSE 2.6 km/h 8.7 km/h 99% 0.5 mm 0 W/m2
00:11 13.3 °C 13.2 °C 1017.8 hPa Calm   11.1 km/h 99% 0.5 mm 0 W/m2
00:21 13.3 °C 13.2 °C 1017.8 hPa Calm   1.1 km/h 99% 0.5 mm 0 W/m2
00:26 13.3 °C 13.2 °C 1018.2 hPa Calm   1.1 km/h 99% 0.5 mm 0 W/m2
00:31 13.4 °C 13.3 °C 1017.8 hPa Calm   3.5 km/h 99% 0.5 mm 0 W/m2
00:36 13.4 °C 13.3 °C 1018.2 hPa Calm   3.5 km/h 99% 0.3 mm 0 W/m2
00:41 13.6 °C 13.4 °C 1017.8 hPa Calm   3.5 km/h 99% 0.0 mm 0 W/m2
00:46 13.6 °C 13.4 °C 1018.2 hPa Calm     99% 0.0 mm 0 W/m2
00:51 13.5 °C 13.3 °C 1017.8 hPa Calm     99% 0.0 mm 0 W/m2
00:56 13.5 °C 13.3 °C 1018.2 hPa Calm     99% 0.0 mm 0 W/m2
01:01 13.3 °C 13.2 °C 1018.2 hPa Calm     99% 0.0 mm 0 W/m2
01:06 13.3 °C 13.2 °C 1017.8 hPa Calm     99% 0.0 mm 0 W/m2
01:11 13.3 °C 13.2 °C 1018.2 hPa Calm     99% 0.0 mm 0 W/m2
01:16 13.0 °C 12.8 °C 1017.8 hPa Calm     99% 0.0 mm 0 W/m2
01:21 13.3 °C 13.2 °C 1017.8 hPa Calm     99% 0.0 mm 0 W/m2
01:26 13.2 °C 13.1 °C 1017.8 hPa Calm     99% 0.0 mm 0 W/m2
01:31 13.0 °C 12.8 °C 1018.2 hPa Calm     99% 0.0 mm 0 W/m2
01:36 12.9 °C 12.4 °C 1017.8 hPa Calm     97% 0.0 mm 0 W/m2
01:41 12.7 °C 12.2 °C 1017.8 hPa Calm     97% 0.0 mm 0 W/m2
01:46 12.6 °C 12.2 °C 1017.8 hPa Calm     97% 0.0 mm 0 W/m2
01:51 12.5 °C 12.1 °C 1017.8 hPa Calm     97% 0.0 mm 0 W/m2
01:56 12.4 °C 11.9 °C 1017.8 hPa Calm     97% 0.0 mm 0 W/m2
02:01 12.3 °C 11.8 °C 1017.8 hPa Calm     97% 0.0 mm 0 W/m2
02:06 12.2 °C 11.7 °C 1017.8 hPa Calm     97% 0.0 mm 0 W/m2
02:11 12.2 °C 11.7 °C 1018.2 hPa Calm     97% 0.0 mm 0 W/m2
02:16 12.1 °C 11.7 °C 1017.8 hPa Calm     97% 0.0 mm 0 W/m2
02:21 12.0 °C 11.6 °C 1017.8 hPa NW 1.1 km/h 7.2 km/h 97% 0.0 mm 0 W/m2
02:26 12.0 °C 11.6 °C 1017.8 hPa Calm   7.2 km/h 97% 0.0 mm 0 W/m2
02:31 12.2 °C 11.7 °C 1018.2 hPa Calm   11.1 km/h 97% 0.0 mm 0 W/m2
02:36 12.2 °C 11.7 °C 1017.8 hPa Calm   11.1 km/h 97% 0.0 mm 0 W/m2
02:41 12.1 °C 11.7 °C 1018.2 hPa Calm   2.6 km/h 97% 0.0 mm 0 W/m2
02:46 12.0 °C 11.6 °C 1017.8 hPa Calm   2.6 km/h 97% 0.0 mm 0 W/m2
02:51 11.8 °C 11.5 °C 1017.8 hPa Calm   2.6 km/h 98% 0.0 mm 0 W/m2
02:56 11.4 °C 11.1 °C 1018.2 hPa Calm   6.1 km/h 98% 0.0 mm 0 W/m2
03:01 11.5 °C 11.2 °C 1017.8 hPa Calm   7.2 km/h 98% 0.0 mm 0 W/m2
03:06 11.6 °C 11.3 °C 1018.2 hPa Calm   7.2 km/h 98% 0.0 mm 0 W/m2
03:11 11.4 °C 11.1 °C 1017.8 hPa Calm     98% 0.0 mm 0 W/m2
03:16 11.1 °C 10.8 °C 1017.8 hPa Calm     98% 0.0 mm 0 W/m2
03:21 11.3 °C 11.0 °C 1017.8 hPa Calm   7.2 km/h 98% 0.0 mm 0 W/m2
03:26 11.2 °C 10.9 °C 1017.8 hPa Calm   7.2 km/h 98% 0.0 mm 0 W/m2
03:31 11.1 °C 10.8 °C 1017.8 hPa Calm   5.0 km/h 98% 0.0 mm 0 W/m2
03:36 10.3 °C 10.2 °C 1017.8 hPa Calm   3.5 km/h 99% 0.0 mm 0 W/m2
03:41 10.9 °C 10.8 °C 1017.8 hPa Calm     99% 0.0 mm 0 W/m2
03:46 10.7 °C 10.6 °C 1017.8 hPa Calm     99% 0.0 mm 0 W/m2
03:51 10.6 °C 10.4 °C 1017.8 hPa Calm     99% 0.0 mm 0 W/m2
03:56 10.2 °C 10.1 °C 1017.8 hPa Calm     99% 0.0 mm 0 W/m2
04:01 10.5 °C 10.3 °C 1017.8 hPa Calm     99% 0.0 mm 0 W/m2
04:07 10.4 °C 10.3 °C 1017.8 hPa Calm     99% 0.0 mm 0 W/m2
04:12 10.3 °C 10.2 °C 1017.8 hPa Calm     99% 0.0 mm 0 W/m2
04:17 10.3 °C 10.2 °C 1017.8 hPa Calm     99% 0.0 mm 0 W/m2
04:22 10.2 °C 10.1 °C 1017.8 hPa Calm     99% 0.0 mm 0 W/m2
04:27 10.1 °C 9.9 °C 1017.8 hPa Calm     99% 0.0 mm 0 W/m2
04:32 9.6 °C 9.4 °C 1017.8 hPa Calm     99% 0.0 mm 0 W/m2
04:37 10.0 °C 9.8 °C 1017.8 hPa Calm     99% 0.0 mm 0 W/m2
04:42 10.0 °C 9.8 °C 1017.8 hPa Calm     99% 0.0 mm 0 W/m2
04:47 9.9 °C 9.8 °C 1017.8 hPa Calm     99% 0.0 mm 0 W/m2
04:52 9.9 °C 9.8 °C 1017.8 hPa Calm   1.1 km/h 99% 0.0 mm 0 W/m2
04:57 9.8 °C 9.7 °C 1017.8 hPa Calm   3.5 km/h 99% 0.0 mm 0 W/m2
05:02 9.8 °C 9.7 °C 1017.8 hPa Calm   3.5 km/h 99% 0.0 mm 0 W/m2
05:07 9.8 °C 9.7 °C 1018.2 hPa Calm     99% 0.0 mm 0 W/m2
05:12 9.8 °C 9.7 °C 1017.8 hPa Calm     99% 0.0 mm 0 W/m2
05:17 9.8 °C 9.7 °C 1017.8 hPa Calm     99% 0.0 mm 0 W/m2
05:22 9.8 °C 9.7 °C 1018.2 hPa Calm     99% 0.0 mm 0 W/m2
05:27 9.7 °C 9.6 °C 1017.8 hPa Calm     99% 0.0 mm 0 W/m2
05:32 9.7 °C 9.6 °C 1018.2 hPa Calm     99% 0.0 mm 0 W/m2
05:37 9.7 °C 9.6 °C 1018.2 hPa Calm   3.5 km/h 99% 0.0 mm 0 W/m2
05:42 9.8 °C 9.7 °C 1018.2 hPa Calm   3.5 km/h 99% 0.0 mm 0 W/m2
05:47 9.8 °C 9.7 °C 1018.2 hPa Calm     99% 0.0 mm 0 W/m2
05:52 9.8 °C 9.7 °C 1018.2 hPa Calm     99% 0.0 mm 0 W/m2
05:57 9.8 °C 9.7 °C 1018.2 hPa Calm   3.5 km/h 99% 0.0 mm 0 W/m2
06:02 9.8 °C 9.7 °C 1018.2 hPa Calm   3.5 km/h 99% 0.0 mm 0 W/m2
06:07 9.8 °C 9.7 °C 1018.2 hPa North 3.5 km/h 7.2 km/h 99% 0.0 mm 0 W/m2
06:12 9.8 °C 9.7 °C 1018.2 hPa NNW 3.5 km/h 7.2 km/h 99% 0.0 mm 0 W/m2
06:17 9.8 °C 9.7 °C 1018.2 hPa NNW 6.1 km/h 7.2 km/h 99% 0.0 mm 0 W/m2
06:22 9.8 °C 9.7 °C 1018.2 hPa NNW 7.2 km/h 12.2 km/h 99% 0.0 mm 0 W/m2
06:27 9.9 °C 9.8 °C 1018.2 hPa NNW 5.0 km/h 12.2 km/h 99% 0.0 mm 0 W/m2
06:32 9.9 °C 9.8 °C 1018.2 hPa NNW 3.5 km/h 9.7 km/h 99% 0.0 mm 0 W/m2
06:37 9.9 °C 9.8 °C 1018.2 hPa Calm   8.7 km/h 99% 0.0 mm 0 W/m2
06:42 10.0 °C 9.8 °C 1018.2 hPa Calm   7.2 km/h 99% 0.0 mm 0 W/m2
06:47 9.9 °C 9.8 °C 1018.2 hPa NNW 6.1 km/h 9.7 km/h 99% 0.0 mm 1 W/m2
06:52 9.9 °C 9.8 °C 1018.5 hPa Calm   9.7 km/h 99% 0.0 mm 4 W/m2
06:57 9.9 °C 9.8 °C 1018.2 hPa NNW 3.5 km/h 9.7 km/h 99% 0.0 mm 6 W/m2
07:02 9.8 °C 9.7 °C 1018.2 hPa Calm   9.7 km/h 99% 0.0 mm 9 W/m2
07:07 9.8 °C 9.7 °C 1018.5 hPa Calm   9.7 km/h 99% 0.0 mm 12 W/m2
07:12 9.7 °C 9.6 °C 1018.5 hPa Calm   8.7 km/h 99% 0.0 mm 16 W/m2
07:17 9.8 °C 9.7 °C 1018.5 hPa Calm     99% 0.0 mm 24 W/m2
07:22 9.9 °C 9.8 °C 1018.8 hPa Calm     99% 0.0 mm 24 W/m2
07:27 10.0 °C 9.8 °C 1018.5 hPa North 5.0 km/h 7.2 km/h 99% 0.0 mm 19 W/m2
07:32 10.0 °C 9.8 °C 1018.8 hPa North 2.6 km/h 8.7 km/h 99% 0.0 mm 25 W/m2
07:50 10.3 °C 10.2 °C 1018.8 hPa Calm   5.0 km/h 99% 0.0 mm 48 W/m2
07:55 10.5 °C 10.3 °C 1018.8 hPa NNW 3.5 km/h 8.7 km/h 99% 0.0 mm 96 W/m2
08:00 10.6 °C 10.4 °C 1018.8 hPa NNW 6.1 km/h 8.7 km/h 99% 0.0 mm 95 W/m2
08:05 10.6 °C 10.4 °C 1018.8 hPa NW 7.2 km/h 13.4 km/h 99% 0.0 mm 86 W/m2
08:10 10.6 °C 10.4 °C 1019.2 hPa NW 5.0 km/h 13.4 km/h 99% 0.0 mm 54 W/m2
08:15 10.6 °C 10.4 °C 1019.2 hPa NNW 3.5 km/h 11.1 km/h 99% 0.0 mm 39 W/m2
08:20 10.6 °C 10.4 °C 1019.2 hPa Calm   8.7 km/h 99% 0.0 mm 44 W/m2
08:25 10.7 °C 10.6 °C 1019.2 hPa Calm   8.7 km/h 99% 0.0 mm 92 W/m2
08:30 11.0 °C 10.7 °C 1019.2 hPa Calm   7.2 km/h 98% 0.0 mm 121 W/m2
08:35 11.2 °C 10.9 °C 1019.2 hPa WNW 3.5 km/h 6.1 km/h 98% 0.0 mm 111 W/m2
08:40 11.2 °C 10.9 °C 1019.2 hPa Calm   8.7 km/h 98% 0.0 mm 131 W/m2
08:45 11.3 °C 11.0 °C 1019.2 hPa NNW 9.7 km/h 13.4 km/h 98% 0.0 mm 98 W/m2
08:50 11.3 °C 11.0 °C 1019.5 hPa NNW 3.5 km/h 13.4 km/h 98% 0.0 mm 85 W/m2
08:55 11.4 °C 11.1 °C 1019.2 hPa NNW 9.7 km/h 13.4 km/h 98% 0.0 mm 51 W/m2
09:00 11.3 °C 11.0 °C 1019.5 hPa NW 6.1 km/h 13.4 km/h 98% 0.0 mm 36 W/m2
09:05 11.4 °C 11.1 °C 1019.5 hPa Calm   13.4 km/h 98% 0.0 mm 31 W/m2
09:10 11.6 °C 11.3 °C 1019.5 hPa Calm   8.7 km/h 98% 0.0 mm 29 W/m2
09:15 11.6 °C 11.3 °C 1019.5 hPa Calm     98% 0.0 mm 40 W/m2
09:20 11.7 °C 11.4 °C 1019.5 hPa Calm   1.1 km/h 98% 0.0 mm 28 W/m2
09:25 11.7 °C 11.4 °C 1019.5 hPa Calm   1.1 km/h 98% 0.3 mm 25 W/m2
09:30 11.8 °C 11.5 °C 1019.5 hPa North 1.1 km/h 7.2 km/h 98% 0.3 mm 13 W/m2
09:35 11.9 °C 11.6 °C 1019.5 hPa NNW 1.1 km/h 7.2 km/h 98% 0.5 mm 18 W/m2
09:40 11.9 °C 11.6 °C 1019.5 hPa Calm   5.0 km/h 98% 0.5 mm 23 W/m2
09:45 12.0 °C 11.6 °C 1019.9 hPa Calm   5.0 km/h 97% 0.5 mm 38 W/m2
09:50 12.0 °C 11.6 °C 1019.5 hPa Calm     97% 0.5 mm 61 W/m2
09:55 12.3 °C 11.8 °C 1019.5 hPa Calm   2.6 km/h 97% 0.5 mm 91 W/m2
10:00 12.6 °C 12.2 °C 1019.5 hPa Calm   6.1 km/h 97% 0.5 mm 118 W/m2
10:05 12.9 °C 12.4 °C 1019.5 hPa Calm   6.1 km/h 97% 0.5 mm 125 W/m2
10:10 13.6 °C 13.4 °C 1019.5 hPa Calm   2.6 km/h 99% 0.5 mm 103 W/m2
10:15 14.0 °C 13.8 °C 1019.5 hPa Calm     99% 0.5 mm 103 W/m2
10:20 14.1 °C 13.9 °C 1019.5 hPa Calm     99% 0.5 mm 123 W/m2
10:26 14.5 °C 14.3 °C 1019.5 hPa Calm   1.1 km/h 99% 0.3 mm 119 W/m2
10:31 14.8 °C 14.7 °C 1019.5 hPa Calm   1.1 km/h 99% 0.3 mm 96 W/m2
10:36 14.7 °C 14.6 °C 1019.9 hPa Calm   7.2 km/h 99% 0.0 mm 111 W/m2
10:41 14.8 °C 14.7 °C 1019.5 hPa SSW 1.1 km/h 7.2 km/h 99% 0.0 mm 156 W/m2
10:46 14.8 °C 14.7 °C 1019.5 hPa Calm   7.2 km/h 99% 0.0 mm 151 W/m2
10:51 14.5 °C 14.3 °C 1019.5 hPa Calm   6.1 km/h 99% 0.0 mm 174 W/m2
10:56 14.3 °C 14.2 °C 1019.5 hPa Calm     99% 0.0 mm 234 W/m2
11:01 15.2 °C 15.1 °C 1019.5 hPa Calm     99% 0.3 mm 237 W/m2
11:06 15.9 °C 15.8 °C 1019.5 hPa Calm     99% 0.3 mm 284 W/m2
11:11 16.2 °C 15.9 °C 1019.5 hPa Calm     98% 0.3 mm 232 W/m2
11:16 16.2 °C 15.9 °C 1019.5 hPa Calm     98% 0.3 mm 235 W/m2
11:21 16.2 °C 15.9 °C 1019.5 hPa Calm     98% 0.3 mm 258 W/m2
11:26 16.3 °C 16.0 °C 1019.5 hPa SSW 1.1 km/h 7.2 km/h 98% 0.3 mm 121 W/m2
11:31 15.9 °C 15.4 °C 1019.5 hPa South 3.5 km/h 8.7 km/h 97% 0.3 mm 140 W/m2
11:48 15.9 °C 15.3 °C 1019.2 hPa Calm   8.7 km/h 96% 0.3 mm 220 W/m2
11:53 16.0 °C 15.2 °C 1019.2 hPa WSW 3.5 km/h 7.2 km/h 95% 0.3 mm 326 W/m2
11:58 16.4 °C 15.4 °C 1019.5 hPa SW 2.6 km/h 7.2 km/h 94% 0.0 mm 120 W/m2
12:03 16.3 °C 15.0 °C 1019.5 hPa Calm   7.2 km/h 92% 0.0 mm 106 W/m2
12:09 16.0 °C 14.7 °C 1019.2 hPa Calm   5.0 km/h 92% 0.5 mm 94 W/m2
12:14 15.6 °C 14.5 °C 1019.2 hPa SW 8.7 km/h 11.1 km/h 93% 1.0 mm 192 W/m2
12:19 15.6 °C 14.7 °C 1019.2 hPa WSW 7.2 km/h 11.1 km/h 94% 1.3 mm 217 W/m2
12:24 15.7 °C 14.9 °C 1019.2 hPa SW 3.5 km/h 11.1 km/h 95% 1.3 mm 210 W/m2
12:29 15.6 °C 14.8 °C 1019.2 hPa SW 6.1 km/h 14.8 km/h 95% 1.3 mm 237 W/m2
12:34 16.0 °C 15.1 °C 1019.2 hPa SW 2.6 km/h 14.8 km/h 94% 1.3 mm 256 W/m2
12:39 16.2 °C 15.2 °C 1019.2 hPa Calm   9.7 km/h 94% 1.3 mm 322 W/m2
12:44 16.4 °C 15.4 °C 1019.2 hPa SW 8.7 km/h 12.2 km/h 94% 1.3 mm 140 W/m2
12:49 16.0 °C 14.9 °C 1018.8 hPa SW 8.7 km/h 14.8 km/h 93% 1.3 mm 118 W/m2
12:54 15.6 °C 14.7 °C 1018.8 hPa Calm   14.8 km/h 94% 1.3 mm 107 W/m2
12:59 15.5 °C 14.6 °C 1018.8 hPa WSW 8.7 km/h 12.2 km/h 94% 1.3 mm 161 W/m2
13:04 15.5 °C 14.7 °C 1018.8 hPa Calm   12.2 km/h 95% 0.5 mm 165 W/m2
13:09 15.5 °C 14.7 °C 1018.8 hPa WSW 7.2 km/h 12.2 km/h 95% 0.3 mm 161 W/m2
13:14 15.7 °C 14.9 °C 1018.5 hPa SW 3.5 km/h 12.2 km/h 95% 0.3 mm 175 W/m2
13:19 15.9 °C 15.1 °C 1018.8 hPa WSW 1.1 km/h 12.2 km/h 95% 0.0 mm 262 W/m2
13:24 16.1 °C 15.2 °C 1018.5 hPa WSW 6.1 km/h 11.1 km/h 94% 0.0 mm 235 W/m2
13:29 16.1 °C 15.0 °C 1018.5 hPa WSW 8.7 km/h 13.4 km/h 93% 0.3 mm 142 W/m2
13:34 15.8 °C 14.7 °C 1018.5 hPa SW 5.0 km/h 14.8 km/h 93% 0.3 mm 122 W/m2
13:39 15.9 °C 14.8 °C 1018.5 hPa SW 7.2 km/h 14.8 km/h 93% 0.3 mm 138 W/m2
13:44 15.7 °C 14.6 °C 1018.5 hPa SW 9.7 km/h 14.8 km/h 93% 0.3 mm 133 W/m2
13:49 15.7 °C 14.6 °C 1018.8 hPa SW 8.7 km/h 14.8 km/h 93% 0.3 mm 101 W/m2
13:55 15.6 °C 14.5 °C 1018.5 hPa Calm   11.1 km/h 93% 0.3 mm 123 W/m2
14:00 16.2 °C 14.9 °C 1018.5 hPa Calm   9.7 km/h 92% 0.3 mm 243 W/m2
14:05 16.8 °C 15.5 °C 1018.5 hPa SW 7.2 km/h 15.8 km/h 92% 0.3 mm 118 W/m2
14:10 16.3 °C 14.7 °C 1018.5 hPa SW 6.1 km/h 17.2 km/h 90% 0.3 mm 122 W/m2
14:15 16.0 °C 14.4 °C 1018.5 hPa SW 6.1 km/h 17.2 km/h 90% 0.3 mm 90 W/m2
14:20 16.4 °C 14.8 °C 1018.5 hPa SW 13.4 km/h 18.3 km/h 90% 0.3 mm 131 W/m2
14:25 16.8 °C 15.0 °C 1018.5 hPa SW 7.2 km/h 18.3 km/h 89% 0.3 mm 136 W/m2
14:30 16.9 °C 14.9 °C 1018.5 hPa WSW 8.7 km/h 18.3 km/h 88% 0.0 mm 157 W/m2
14:35 17.4 °C 15.1 °C 1018.5 hPa WSW 9.7 km/h 15.8 km/h 86% 0.0 mm 197 W/m2
14:40 18.0 °C 15.4 °C 1018.5 hPa WSW 12.2 km/h 15.8 km/h 85% 0.0 mm 211 W/m2
14:45 17.4 °C 14.5 °C 1018.5 hPa WSW 12.2 km/h 18.3 km/h 83% 0.0 mm 204 W/m2
14:50 17.2 °C 14.5 °C 1018.5 hPa SW 9.7 km/h 21.9 km/h 84% 0.0 mm 159 W/m2
14:55 17.0 °C 14.4 °C 1018.5 hPa SW 12.2 km/h 21.9 km/h 85% 0.0 mm 133 W/m2
15:00 16.6 °C 14.3 °C 1018.5 hPa SW 9.7 km/h 18.3 km/h 86% 0.0 mm 121 W/m2
15:05 16.3 °C 14.2 °C 1018.5 hPa SW 8.7 km/h 17.2 km/h 87% 0.0 mm 103 W/m2
15:10 16.0 °C 14.2 °C 1018.5 hPa SW 8.7 km/h 18.3 km/h 89% 0.0 mm 91 W/m2
15:16 15.8 °C 14.3 °C 1018.5 hPa SW 9.7 km/h 18.3 km/h 91% 0.0 mm 87 W/m2
15:21 15.7 °C 14.4 °C 1018.5 hPa SW 5.0 km/h 13.4 km/h 92% 0.0 mm 90 W/m2
15:26 15.7 °C 14.4 °C 1018.5 hPa SW 1.1 km/h 13.4 km/h 92% 0.0 mm 92 W/m2
15:32 15.8 °C 14.5 °C 1018.5 hPa Calm   9.7 km/h 92% 0.0 mm 94 W/m2
15:37 15.9 °C 14.6 °C 1018.5 hPa Calm   8.7 km/h 92% 0.0 mm 88 W/m2
15:42 16.0 °C 14.6 °C 1018.5 hPa Calm     91% 0.0 mm 81 W/m2
15:47 16.0 °C 14.4 °C 1018.5 hPa WSW 2.6 km/h 11.1 km/h 90% 0.0 mm 80 W/m2
15:52 16.1 °C 14.4 °C 1018.5 hPa WSW 3.5 km/h 11.1 km/h 90% 0.0 mm 76 W/m2
15:57 16.1 °C 14.3 °C 1018.5 hPa Calm   7.2 km/h 89% 0.0 mm 70 W/m2
16:02 16.1 °C 14.3 °C 1018.5 hPa Calm   5.0 km/h 89% 0.0 mm 66 W/m2
16:08 16.0 °C 14.2 °C 1018.5 hPa Calm     89% 0.0 mm 59 W/m2
16:13 16.0 °C 14.2 °C 1018.5 hPa Calm     89% 0.0 mm 56 W/m2
16:18 16.0 °C 14.2 °C 1018.2 hPa West 3.5 km/h 6.1 km/h 89% 0.0 mm 51 W/m2
16:23 15.9 °C 14.3 °C 1018.5 hPa Calm   6.1 km/h 90% 0.0 mm 55 W/m2
16:28 15.9 °C 14.4 °C 1018.2 hPa Calm   6.1 km/h 91% 0.0 mm 43 W/m2
16:33 15.9 °C 14.4 °C 1018.5 hPa Calm     91% 0.0 mm 44 W/m2
16:38 15.9 °C 14.4 °C 1018.5 hPa Calm     91% 0.0 mm 44 W/m2
16:43 15.9 °C 14.6 °C 1018.5 hPa Calm   7.2 km/h 92% 0.0 mm 53 W/m2
16:48 16.0 °C 14.6 °C 1018.5 hPa Calm   7.2 km/h 91% 0.0 mm 39 W/m2
16:53 16.0 °C 14.6 °C 1018.2 hPa Calm   9.7 km/h 91% 0.0 mm 32 W/m2
16:58 15.9 °C 14.6 °C 1018.5 hPa Calm   9.7 km/h 92% 0.0 mm 28 W/m2
17:03 16.0 °C 14.6 °C 1018.5 hPa Calm   9.7 km/h 91% 0.0 mm 28 W/m2
17:20 15.7 °C 14.4 °C 1018.5 hPa Calm   7.2 km/h 92% 0.0 mm 8 W/m2
17:26 15.6 °C 14.3 °C 1018.5 hPa Calm   7.2 km/h 92% 0.0 mm 4 W/m2
17:31 15.4 °C 14.3 °C 1018.5 hPa Calm   6.1 km/h 93% 0.0 mm 2 W/m2
17:36 15.4 °C 14.3 °C 1018.5 hPa Calm   2.6 km/h 93% 0.0 mm 0 W/m2
17:41 15.3 °C 14.2 °C 1018.5 hPa Calm     93% 0.0 mm 0 W/m2
17:46 15.2 °C 14.1 °C 1018.5 hPa Calm     93% 0.0 mm 0 W/m2
17:51 15.1 °C 14.0 °C 1018.5 hPa Calm     93% 0.0 mm 0 W/m2
17:56 15.1 °C 14.0 °C 1018.5 hPa Calm     93% 0.0 mm 0 W/m2
18:01 15.0 °C 13.9 °C 1018.5 hPa Calm     93% 0.0 mm 0 W/m2
18:06 15.0 °C 13.9 °C 1018.8 hPa Calm     93% 0.0 mm 0 W/m2
18:11 14.9 °C 14.1 °C 1018.8 hPa Calm     95% 0.0 mm 0 W/m2
18:16 14.8 °C 14.0 °C 1018.8 hPa Calm     95% 0.0 mm 0 W/m2
18:21 14.8 °C 14.0 °C 1018.8 hPa Calm     95% 0.0 mm 0 W/m2
18:26 14.8 °C 14.2 °C 1018.8 hPa Calm     96% 0.0 mm 0 W/m2
18:45 14.6 °C 14.0 °C 1018.8 hPa Calm     96% 0.0 mm 0 W/m2
18:50 14.4 °C 13.8 °C 1018.8 hPa Calm     96% 0.0 mm 0 W/m2
18:55 14.3 °C 13.7 °C 1018.8 hPa Calm     96% 0.0 mm 0 W/m2
19:00 14.2 °C 13.6 °C 1019.2 hPa Calm     96% 0.0 mm 0 W/m2
19:05 14.1 °C 13.6 °C 1018.8 hPa Calm     97% 0.0 mm 0 W/m2
19:10 14.0 °C 13.6 °C 1018.8 hPa Calm     97% 0.0 mm 0 W/m2
19:15 14.0 °C 13.6 °C 1018.8 hPa Calm     97% 0.0 mm 0 W/m2
19:20 13.8 °C 13.5 °C 1018.8 hPa Calm     98% 0.0 mm 0 W/m2
19:25 13.7 °C 13.4 °C 1018.8 hPa Calm     98% 0.0 mm 0 W/m2
19:30 13.6 °C 13.3 °C 1019.2 hPa Calm     98% 0.0 mm 0 W/m2
19:35 13.6 °C 13.4 °C 1018.8 hPa Calm     99% 0.0 mm 0 W/m2
19:40 13.5 °C 13.3 °C 1019.2 hPa Calm     99% 0.0 mm 0 W/m2
19:45 13.4 °C 13.3 °C 1019.2 hPa Calm     99% 0.0 mm 0 W/m2
19:50 13.3 °C 13.2 °C 1019.2 hPa Calm     99% 0.0 mm 0 W/m2
19:55 13.2 °C 13.1 °C 1019.2 hPa Calm     99% 0.0 mm 0 W/m2
20:00 13.1 °C 12.9 °C 1019.2 hPa Calm     99% 0.0 mm 0 W/m2
20:05 13.1 °C 12.9 °C 1019.2 hPa Calm     99% 0.0 mm 0 W/m2
20:10 13.0 °C 12.8 °C 1019.2 hPa Calm     99% 0.0 mm 0 W/m2
20:15 13.0 °C 12.8 °C 1019.5 hPa Calm     99% 0.0 mm 0 W/m2
20:20 12.9 °C 12.4 °C 1019.2 hPa Calm     97% 0.0 mm 0 W/m2
20:25 12.8 °C 12.3 °C 1019.2 hPa Calm     97% 0.0 mm 0 W/m2
20:30 12.8 °C 12.3 °C 1019.2 hPa Calm     97% 0.0 mm 0 W/m2
20:35 12.6 °C 12.2 °C 1019.2 hPa Calm     97% 0.0 mm 0 W/m2
20:40 12.6 °C 12.2 °C 1019.5 hPa Calm   1.1 km/h 97% 0.0 mm 0 W/m2
20:45 12.5 °C 12.1 °C 1019.5 hPa Calm   1.1 km/h 97% 0.0 mm 0 W/m2
20:50 12.5 °C 12.1 °C 1019.5 hPa Calm     97% 0.0 mm 0 W/m2
20:55 12.5 °C 12.1 °C 1019.5 hPa Calm     97% 0.0 mm 0 W/m2
21:00 12.5 °C 12.1 °C 1019.5 hPa Calm     97% 0.0 mm 0 W/m2
21:05 12.5 °C 12.1 °C 1019.5 hPa Calm     97% 0.0 mm 0 W/m2
21:10 12.5 °C 12.1 °C 1019.5 hPa Calm     97% 0.0 mm 0 W/m2
21:15 12.5 °C 12.1 °C 1019.9 hPa Calm     97% 0.0 mm 0 W/m2
21:20 12.6 °C 12.2 °C 1019.9 hPa Calm     97% 0.0 mm 0 W/m2
21:25 12.6 °C 12.2 °C 1019.9 hPa Calm     97% 0.0 mm 0 W/m2
21:30 12.5 °C 12.1 °C 1019.9 hPa Calm     97% 0.0 mm 0 W/m2
21:35 12.5 °C 12.1 °C 1019.9 hPa Calm     97% 0.0 mm 0 W/m2
21:40 12.5 °C 12.1 °C 1019.9 hPa Calm     97% 0.0 mm 0 W/m2
21:45 12.6 °C 12.2 °C 1019.9 hPa Calm     97% 0.0 mm 0 W/m2
21:50 12.5 °C 12.1 °C 1019.9 hPa Calm     97% 0.0 mm 0 W/m2
21:55 12.5 °C 12.1 °C 1019.9 hPa Calm     97% 0.0 mm 0 W/m2
22:00 12.5 °C 12.1 °C 1019.9 hPa Calm     97% 0.0 mm 0 W/m2
22:05 12.4 °C 11.9 °C 1019.9 hPa Calm     97% 0.0 mm 0 W/m2
22:10 12.4 °C 11.9 °C 1019.9 hPa Calm     97% 0.0 mm 0 W/m2
22:15 12.3 °C 11.8 °C 1019.5 hPa Calm     97% 0.0 mm 0 W/m2
22:20 12.2 °C 11.7 °C 1019.5 hPa Calm     97% 0.0 mm 0 W/m2
22:26 12.2 °C 11.7 °C 1019.9 hPa Calm     97% 0.0 mm 0 W/m2
22:31 12.2 °C 11.7 °C 1019.9 hPa Calm     97% 0.0 mm 0 W/m2
22:36 12.2 °C 11.7 °C 1019.9 hPa Calm     97% 0.0 mm 0 W/m2
22:41 12.2 °C 11.7 °C 1019.9 hPa Calm     97% 0.0 mm 0 W/m2
22:46 12.2 °C 11.7 °C 1019.9 hPa Calm     97% 0.0 mm 0 W/m2
22:51 12.2 °C 11.7 °C 1019.9 hPa Calm     97% 0.0 mm 0 W/m2
22:56 12.1 °C 11.7 °C 1019.9 hPa Calm     97% 0.0 mm 0 W/m2
23:01 12.0 °C 11.6 °C 1019.9 hPa Calm     97% 0.0 mm 0 W/m2
23:06 12.0 °C 11.6 °C 1020.2 hPa Calm     97% 0.0 mm 0 W/m2
23:11 11.8 °C 11.5 °C 1019.9 hPa Calm   7.2 km/h 98% 0.0 mm 0 W/m2
23:16 11.8 °C 11.5 °C 1020.2 hPa Calm   7.2 km/h 98% 0.0 mm 0 W/m2
23:21 11.8 °C 11.5 °C 1019.9 hPa Calm     98% 0.0 mm 0 W/m2
23:26 11.8 °C 11.5 °C 1019.9 hPa Calm     98% 0.0 mm 0 W/m2
23:31 11.8 °C 11.5 °C 1019.5 hPa Calm     98% 0.0 mm 0 W/m2
23:36 11.7 °C 11.4 °C 1019.9 hPa Calm   3.5 km/h 98% 0.0 mm 0 W/m2
23:41 11.7 °C 11.4 °C 1019.5 hPa Calm   3.5 km/h 98% 0.0 mm 0 W/m2
23:46 11.8 °C 11.5 °C 1019.5 hPa Calm     98% 0.0 mm 0 W/m2
23:51 11.8 °C 11.5 °C 1019.5 hPa Calm     98% 0.0 mm 0 W/m2
23:56 11.9 °C 11.6 °C 1019.5 hPa Calm     98% 0.0 mm 0 W/m2
Northern Hawkes Bay. New Zealand Historic Data
Compliments of Weather Underground - 2 mb